Details From EPGD - LECH WALESA
To ENRY - RYGGE
Flight Number -
Tags decoded
Created
Modified
Stats Distance 394 nm / 729 km
Max Altitude 0 ft / 0 m
Waypoints 5
Social Downloads 1
Likes 0
Share VATSIM

Download

Looking for another format? Having issues loading an existing format? Contact us
Advertisement - Login to hide

Notes

Requested: EPGD VAPOS N133 PENOR XENTA L997 REGMA ENRY Unmatched points: N133 XENTA L997

Route

EPGD VAPOS PENOR REGMA ENRY

ID Type Via Altitude Latitude Longitude Leg Dist Tot Dist Heading (true) Name
O EPGD APT - 0 ft / 0 m 54.37617˚ 18.47188˚ - 0 nm - LECH WALESA
VAPOS FIX - 0 ft / 0 m 54.79528˚ 17.82667˚ 33 nm 33 nm 319° / 318° -
PENOR FIX - 0 ft / 0 m 55.63861˚ 17.16139˚ 55 nm 89 nm 336° / 335° -
REGMA FIX - 0 ft / 0 m 59.10889˚ 11.34944˚ 280 nm 369 nm 320° / 315° -
O ENRY APT - 0 ft / 0 m 59.37879˚ 10.78543˚ 23 nm 393 nm 313° / 313° RYGGE

Altitude Profile

Advertisement - Login to hide

Weather


0- 5 10 15 20 25 30 35+ Temperature / ° C

Clouds and Precipitation
Forecast for 2017-12-17 18:00 UTC. Updated an hour ago

Ground ~20,000 ft ~40,000 ft Winds

EPGD

Details ICAO EPGD (GDN)
Name LECH WALESA
Region Poland
Timezone Europe/Warsaw (UTC+1.0)
Stats Elevation 489 ft / 149 m (AMSL)
Location 54.376167° 18.471884°
Runways 1
Magnetic Variation 5.452° E

METAR

EPGD 171600Z 25005KT 220V290 0250 R29/0600U FZFG VV001 M02/M03 Q1018

Decode

TAF

TAF AMD EPGD 171458Z 1714/1812 26005KT 0300 FZFG OVC001 PROB40 TEMPO 1716/1809 2000 BR BKN004 BECMG 1810/1812 6000 NSW BKN007

Decode

Departure Runways

ID Width Length Bearing (true) Bearing (mag) Surface Threshold Offset Overrun Length
11 148 ft / 45 m 9,158 ft / 2,791 m 112.96° 107.51° Asphalt 0 ft / 0 m 0 ft / 0 m
29 148 ft / 45 m 9,158 ft / 2,791 m 293.00° 287.55° Asphalt 0 ft / 0 m 0 ft / 0 m

ENRY

Details ICAO ENRY (RYG)
Name RYGGE
Region Norway
Timezone Europe/Oslo (UTC+1.0)
Stats Elevation 174 ft / 53 m (AMSL)
Location 59.378793° 10.785426°
Runways 1
Magnetic Variation 3.219° E

METAR

ENRY 171550Z AUTO VRB01KT 0400NDV R12/1000VP2000U R30/P2000N BCFG NCD M08/M09 Q1013

Decode

TAF

TAF TAF AMD ENRY 171512Z 1715/1812 20008KT CAVOK TEMPO 1715/1724 0100 FZFG VV000 BECMG 1800/1803 3000 -SNRA BKN008 PROB40 1800/1803 -FZRA BECMG 1803/1806 RADZ BECMG 1808/1811 CAVOK

Decode

Destination Runways

ID Width Length Bearing (true) Bearing (mag) Surface Threshold Offset Overrun Length
12 148 ft / 45 m 7,990 ft / 2,435 m 116.83° 113.61° Asphalt 0 ft / 0 m 898 ft / 274 m
30 148 ft / 45 m 7,990 ft / 2,435 m 296.86° 293.64° Asphalt 0 ft / 0 m 898 ft / 274 m

Approach Navaids

Runway Type Ident Frequency Range Bearing (true) Bearing (mag) Slope Elevation
30 Localiser RY 109.10 MHz 18 nm / 33 km 296.79° 293.57° - 173 ft / 53 m (AMSL)
30 Glidescope RY 109.10 MHz 10 nm / 19 km 296.84° 293.62° 3.10° 217 ft / 66 m (AMSL)
30 DME RY 109.10 MHz 18 nm / 33 km - - - 174 ft / 53 m (AMSL)